• Join FlightAware (Why Join?)
  • Login
  • US Flag 
11:13AM EST


 

Airport Tracker/Info


-or-


 

Live Flight TrackerFlight Track Log ✈ SWA3734 ✈ 10-Mar-2012 ✈ KOAK - KLAX

Flight Track Log - Related Links

Times and Time Zones

All times are in EST time to prevent confusion due to time zone crossing. See the SWA3734 flight status page for this flight to view local times or setup timezone preferences in your user account.

Time Position Orientation Groundspeed Altitude Reporting Facility
EST Latitude Longitude Course Direction KTS MPH feet Rate Location/Type
11:24PM 37.7556 -122.2947 259° West 189 217 2,900  Level Oakland Center
11:25PM 37.7442 -122.3708 176° South 201 231 6,100 3,360 Climbing Oakland Center
11:26PM 37.6711 -122.3642 135° Southeast 160 184 9,700 3,240 Climbing Oakland Center
11:27PM 37.6056 -122.2817 136° Southeast 220 253 12,600 3,240 Climbing Oakland Center
11:28PM 37.5314 -122.1914 136° Southeast 294 338 16,200 2,940 Climbing Oakland Center
11:29PM 37.4572 -122.1011 136° Southeast 342 394 18,500 2,460 Climbing Oakland Center
11:30PM 37.3767 -122.0033 137° Southeast 380 437 21,200 2,760 Climbing Oakland Center
11:31PM 37.2919 -121.9028 135° Southeast 406 467 24,100 3,000 Climbing Oakland Center
11:32PM 37.1969 -121.7817 137° Southeast 432 497 27,200 2,640 Climbing Oakland Center
11:33PM 37.1058 -121.6767 136° Southeast 444 511 29,400 1,920 Climbing Oakland Center
11:34PM 37.0269 -121.5822 136° Southeast 444 511 31,100 2,040 Climbing Oakland Center
11:35PM 36.9336 -121.4697 138° Southeast 450 518 33,500 2,280 Climbing Oakland Center
11:36PM 36.8422 -121.3653 135° Southeast 450 518 35,700 2,160 Climbing Oakland Center
11:37PM 36.7592 -121.2614 136° Southeast 439 505 37,900 1,500 Climbing Oakland Center
11:38PM 36.6717 -121.1572 138° Southeast 439 505 38,800 540 Climbing Oakland Center
11:39PM 36.5800 -121.0536 136° Southeast 439 505 39,000 60 Climbing Oakland Center
11:40PM 36.4883 -120.9450 137° Southeast 444 511 39,000  Level Oakland Center
11:41PM 36.3964 -120.8394 137° Southeast 449 517 39,000  Level Oakland Center
11:42PM 36.3025 -120.7314 137° Southeast 449 517 39,000  Level Oakland Center
11:43PM 36.2103 -120.6236 136° Southeast 449 517 39,000  Level Oakland Center
11:45PM 36.0861 -120.4772 137° Southeast 460 529 39,000  Level Los Angeles Center
11:46PM 35.9939 -120.3719 137° Southeast 460 529 39,000  Level Los Angeles Center
11:47PM 35.8994 -120.2644 137° Southeast 460 529 39,000  Level Los Angeles Center
11:48PM 35.8092 -120.1600 138° Southeast 455 524 39,000  Level Los Angeles Center
11:49PM 35.7144 -120.0556 138° Southeast 450 518 39,000  Level Los Angeles Center
11:50PM 35.6117 -119.9433 146° Southeast 455 524 39,000  Level Los Angeles Center
11:51PM 35.5058 -119.8542 145° Southeast 450 518 39,000  Level Los Angeles Center
11:52PM 35.4042 -119.7678 145° Southeast 450 518 39,000  Level Los Angeles Center
11:53PM 35.3003 -119.6792 146° Southeast 455 524 39,000 -900 Level Los Angeles Center
11:54PM 35.1964 -119.5933 145° Southeast 455 524 37,300 -2,220 Descending Los Angeles Center
11:55PM 35.0967 -119.5081 144° Southeast 448 516 34,600 -2,880 Descending Los Angeles Center
11:56PM 34.9967 -119.4200 146° Southeast 448 516 31,600 -2,700 Descending Los Angeles Center
11:57PM 34.8967 -119.3378 146° Southeast 442 509 29,200 -2,400 Descending Los Angeles Center
11:58PM 34.7944 -119.2528 145° Southeast 442 509 26,800 -2,340 Descending Los Angeles Center
11:59PM 34.6986 -119.1708 148° Southeast 436 502 24,600 -2,280 Descending Los Angeles Center
12:00AM 34.6022 -119.0967 145° Southeast 425 489 22,300 -2,100 Descending Los Angeles Center
12:01AM 34.5183 -119.0256 144° Southeast 415 478 20,400 -2,100 Descending Los Angeles Center
12:02AM 34.4306 -118.9494 147° Southeast 404 465 18,200 -2,160 Descending Los Angeles Center
12:03AM 34.3422 -118.8811 163° South 393 452 16,100 -1,740 Descending Los Angeles Center
12:04AM 34.2556 -118.8481 163° South 373 429 14,800 -1,200 Descending Los Angeles Center
12:05AM 34.1725 -118.8178 164° South 340 391 13,700 -900 Descending Los Angeles Center
12:06AM 34.0919 -118.7900 140° Southeast 316 364 13,100 -900 Descending Los Angeles Center
12:07AM 34.0367 -118.7333 98° East 293 337 11,900 -1,260 Descending Los Angeles Center
12:08AM 34.0242 -118.6300 96° East 250 288 10,600 -1,440 Descending Los Angeles Center
12:09AM 34.0158 -118.5347 93° East 257 296 9,100 -1,500 Descending Los Angeles Center
12:10AM 34.0114 -118.4442 85° East 269 310 7,600 -1,440 Descending Los Angeles Center
12:10AM 34.0167 -118.3667 73° East 267 307 6,700 -1,200 Descending Southern California TRACON
12:11AM 34.0333 -118.3000 90° East 250 288 5,600 -840 Descending Southern California TRACON
12:12AM 34.0333 -118.2167 157° South 222 255 5,100 -780 Descending Southern California TRACON
12:13AM 34.0000 -118.2000 239° Southwest 203 234 4,100 -1,320 Descending Southern California TRACON
12:14AM 33.9667 -118.2667 270° West 204 235 2,500 -1,440 Descending Southern California TRACON
12:15AM 33.9667 -118.3333 248° West 184 212 1,300 -1,020 Descending Southern California TRACON
12:16AM 33.9500 -118.3833 264° West 136 157 500 -540 Descending Southern California TRACON
12:18AM 33.9444 -118.4450 264° West 154 177 100 -360 Descending Los Angeles Center